Time;durP1;ratioP1;P1;durP2;ratioP2;P2;SDS_P1;SDS_P2;PMS_P1;PMS_P2;Temp;Humidity;BMP_temperature;BMP_pressure;BME280_temperature;BME280_humidity;BME280_pressure;Samples;Min_cycle;Max_cycle;Signal;HPM_P1;HPM_P2
2021/10/29 00:01:55;;;;;;;18.23;11.73;;;;;;;;;;5077187;28;20488;-65
2021/10/29 00:04:22;;;;;;;17.10;11.80;;;;;;;;;;5071560;28;20550;-66
2021/10/29 00:06:49;;;;;;;16.53;12.13;;;15.90;1.00;;;;;;5077259;28;20864;-65
2021/10/29 00:09:16;;;;;;;17.53;11.30;;;6.70;99.90;;;;;;5085717;28;20815;-66
2021/10/29 00:11:43;;;;;;;18.33;11.20;;;6.50;99.90;;;;;;5074022;28;20810;-66
2021/10/29 00:14:10;;;;;;;16.60;11.40;;;6.50;99.90;;;;;;5075073;28;20472;-66
2021/10/29 00:16:39;;;;;;;14.43;12.10;;;6.40;99.90;;;;;;5075178;28;20473;-66
2021/10/29 00:19:05;;;;;;;15.10;11.07;;;6.50;99.90;;;;;;5075221;28;21001;-66
2021/10/29 00:21:32;;;;;;;18.40;11.37;;;6.40;99.90;;;;;;5085590;28;20537;-65
2021/10/29 00:23:59;;;;;;;14.97;11.67;;;6.40;99.90;;;;;;5078953;28;20484;-66
2021/10/29 00:26:26;;;;;;;18.30;10.57;;;6.30;99.90;;;;;;5088143;28;20480;-65
2021/10/29 00:28:53;;;;;;;15.30;10.00;;;6.30;99.90;;;;;;5072378;28;20458;-66
2021/10/29 00:31:20;;;;;;;20.13;12.10;;;6.40;99.90;;;;;;5071640;28;20819;-66
2021/10/29 00:33:48;;;;;;;21.00;11.70;;;6.40;99.90;;;;;;5070313;28;20449;-66
2021/10/29 00:36:15;;;;;;;15.97;11.40;;;6.40;99.90;;;;;;5072265;28;21052;-66
2021/10/29 00:38:42;;;;;;;17.67;11.30;;;6.30;99.90;;;;;;5070220;28;20480;-66
2021/10/29 00:41:09;;;;;;;13.10;10.30;;;6.30;99.90;;;;;;5071367;28;20453;-66
2021/10/29 00:43:36;;;;;;;23.20;12.70;;;6.20;99.90;;;;;;5080054;28;20449;-66
2021/10/29 00:46:03;;;;;;;15.47;11.57;;;6.30;99.90;;;;;;5089588;28;20481;-66
2021/10/29 00:48:30;;;;;;;17.20;11.47;;;6.30;99.90;;;;;;5089720;28;20496;-66
2021/10/29 00:50:58;;;;;;;16.20;12.13;;;6.30;99.90;;;;;;5083641;28;20455;-66
2021/10/29 00:53:26;;;;;;;24.07;12.20;;;6.30;99.90;;;;;;5079170;28;20820;-66
2021/10/29 00:55:53;;;;;;;15.00;11.03;;;6.20;99.90;;;;;;5086959;28;20449;-65
2021/10/29 00:58:20;;;;;;;15.63;11.87;;;6.40;99.90;;;;;;5074649;28;20485;-66
2021/10/29 01:00:47;;;;;;;17.83;12.07;;;6.20;99.90;;;;;;5083881;28;20498;-65
2021/10/29 01:03:14;;;;;;;18.37;12.90;;;6.20;99.90;;;;;;5074728;28;20450;-67
2021/10/29 01:05:41;;;;;;;17.60;12.10;;;6.20;99.90;;;;;;5093985;28;20459;-66
2021/10/29 01:08:10;;;;;;;16.43;12.17;;;6.20;99.90;;;;;;5077377;28;20445;-66
2021/10/29 01:10:38;;;;;;;16.20;11.77;;;6.20;99.90;;;;;;5075303;28;20452;-66
2021/10/29 01:13:07;;;;;;;17.20;11.83;;;6.20;99.90;;;;;;5074632;28;20447;-66
2021/10/29 01:15:34;;;;;;;13.67;11.30;;;6.20;99.90;;;;;;5074770;28;20484;-66
2021/10/29 01:18:01;;;;;;;16.27;11.47;;;6.10;99.90;;;;;;5088525;28;20480;-66
2021/10/29 01:20:29;;;;;;;13.93;10.50;;;6.10;99.90;;;;;;5076050;28;20532;-65
2021/10/29 01:22:56;;;;;;;15.30;11.77;;;6.30;99.90;;;;;;5081248;28;20445;-65
2021/10/29 01:25:23;;;;;;;16.90;12.20;;;6.20;99.90;;;;;;5082742;28;20429;-65
2021/10/29 01:27:50;;;;;;;18.73;11.30;;;6.40;99.90;;;;;;5073548;28;20456;-66
2021/10/29 01:30:17;;;;;;;21.30;12.93;;;6.40;99.90;;;;;;5092792;28;20534;-66
2021/10/29 01:32:44;;;;;;;18.07;11.70;;;6.30;99.90;;;;;;5075078;28;20524;-66
2021/10/29 01:35:13;;;;;;;16.50;11.83;;;6.30;99.90;;;;;;5074263;28;20445;-65
2021/10/29 01:37:44;;;;;;;19.70;12.20;;;6.30;99.90;;;;;;5088419;28;20473;-65
2021/10/29 01:40:13;;;;;;;17.77;11.80;;;6.20;99.90;;;;;;5091477;28;21019;-66
2021/10/29 01:42:41;;;;;;;15.77;11.03;;;6.20;99.90;;;;;;5088467;28;20458;-66
2021/10/29 01:45:09;;;;;;;19.90;12.30;;;6.10;99.90;;;;;;5089438;28;20538;-66
2021/10/29 01:47:36;;;;;;;22.93;13.90;;;6.10;99.90;;;;;;5076123;28;20445;-66
2021/10/29 01:50:04;;;;;;;21.23;12.87;;;6.00;99.90;;;;;;5077840;28;20454;-66
2021/10/29 01:52:31;;;;;;;16.20;11.70;;;6.10;99.90;;;;;;5074544;28;20475;-66
2021/10/29 01:54:59;;;;;;;18.87;11.50;;;6.20;99.90;;;;;;5083059;28;20468;-66
2021/10/29 01:57:26;;;;;;;18.50;12.03;;;6.10;99.90;;;;;;5088360;28;20962;-66
2021/10/29 01:59:53;;;;;;;21.10;11.70;;;6.10;99.90;;;;;;5082077;28;20892;-66
2021/10/29 02:02:20;;;;;;;20.60;12.07;;;6.00;99.90;;;;;;5086206;28;20457;-66
2021/10/29 02:04:47;;;;;;;25.73;12.53;;;6.00;99.90;;;;;;5074590;28;20445;-66
2021/10/29 02:07:13;;;;;;;20.80;12.20;;;6.30;99.90;;;;;;5092662;28;20453;-66
2021/10/29 02:09:40;;;;;;;15.97;11.57;;;6.20;99.90;;;;;;5087334;28;20535;-66
2021/10/29 02:12:09;;;;;;;17.07;12.17;;;6.10;99.90;;;;;;5093784;28;21001;-66
2021/10/29 02:14:36;;;;;;;17.77;11.57;;;5.90;99.90;;;;;;5093863;28;20543;-65
2021/10/29 02:17:03;;;;;;;14.57;10.80;;;5.80;99.90;;;;;;5079335;28;20480;-65
2021/10/29 02:19:30;;;;;;;18.67;12.80;;;5.80;99.90;;;;;;5091645;28;20532;-66
2021/10/29 02:21:58;;;;;;;14.57;11.10;;;5.80;99.90;;;;;;5089160;28;20461;-66
2021/10/29 02:24:25;;;;;;;19.93;12.50;;;5.70;99.90;;;;;;5089888;28;20479;-65
2021/10/29 02:26:51;;;;;;;15.60;11.87;;;5.60;99.90;;;;;;5084397;28;20449;-66
2021/10/29 02:29:20;;;;;;;15.53;11.27;;;5.60;99.90;;;;;;5073384;28;20633;-66
2021/10/29 02:31:46;;;;;;;21.27;12.07;;;5.70;99.90;;;;;;5074545;28;21033;-66
2021/10/29 02:34:13;;;;;;;21.70;12.20;;;5.60;99.90;;;;;;5079865;28;20459;-66
2021/10/29 02:36:40;;;;;;;20.07;11.60;;;5.60;99.90;;;;;;5082704;28;20538;-66
2021/10/29 02:39:07;;;;;;;19.33;11.63;;;5.60;99.90;;;;;;5073973;28;20948;-66
2021/10/29 02:41:34;;;;;;;15.07;11.57;;;6.00;99.90;;;;;;5073183;28;20449;-66
2021/10/29 02:44:01;;;;;;;19.23;12.13;;;5.90;99.90;;;;;;5077781;28;20457;-66
2021/10/29 02:46:30;;;;;;;16.60;11.50;;;6.00;99.90;;;;;;5082231;28;20448;-66
2021/10/29 02:48:58;;;;;;;13.93;8.90;;;5.90;99.90;;;;;;5090851;28;21035;-66
2021/10/29 02:51:25;;;;;;;20.40;10.80;;;5.70;99.90;;;;;;5093109;28;20541;-66
2021/10/29 02:53:52;;;;;;;15.40;9.90;;;5.60;99.90;;;;;;5089470;28;20476;-65
2021/10/29 02:56:19;;;;;;;14.60;9.90;;;5.50;99.90;;;;;;5082001;28;20806;-65
2021/10/29 02:58:46;;;;;;;16.13;11.00;;;5.50;99.90;;;;;;5084570;28;21010;-66
2021/10/29 03:01:13;;;;;;;15.63;10.60;;;5.40;99.90;;;;;;5082148;28;20976;-65
2021/10/29 03:03:41;;;;;;;17.93;11.40;;;5.30;99.90;;;;;;5084562;28;20826;-66
2021/10/29 03:06:08;;;;;;;16.27;10.93;;;5.30;99.90;;;;;;5080176;28;20528;-66
2021/10/29 03:08:35;;;;;;;14.67;9.40;;;5.20;99.90;;;;;;5072921;28;20540;-65
2021/10/29 03:11:02;;;;;;;17.73;10.80;;;5.20;99.90;;;;;;5080991;28;20527;-66
2021/10/29 03:13:30;;;;;;;20.90;12.13;;;5.20;99.90;;;;;;5084318;28;20515;-66
2021/10/29 03:15:57;;;;;;;13.70;10.53;;;5.30;99.90;;;;;;5079797;28;20449;-65
2021/10/29 03:18:23;;;;;;;19.73;11.73;;;5.30;99.90;;;;;;5071162;28;20491;-65
2021/10/29 03:20:52;;;;;;;17.23;10.30;;;5.20;99.90;;;;;;5089970;28;20804;-65
2021/10/29 03:23:19;;;;;;;19.23;11.40;;;5.10;99.90;;;;;;5074490;28;20477;-65
2021/10/29 03:25:46;;;;;;;15.70;9.60;;;5.10;99.90;;;;;;5091338;28;20483;-66
2021/10/29 03:28:14;;;;;;;16.07;11.87;;;5.10;99.90;;;;;;5072302;28;20842;-66
2021/10/29 03:30:41;;;;;;;16.90;11.00;;;5.10;99.90;;;;;;5077566;28;20445;-66
2021/10/29 03:33:08;;;;;;;16.20;10.90;;;5.20;99.90;;;;;;5090817;28;20454;-65
2021/10/29 03:35:35;;;;;;;16.43;11.40;;;5.20;99.90;;;;;;5091435;28;20440;-65
2021/10/29 03:40:51;;;;;;;14.37;10.43;;;5.10;99.90;;;;;;5084748;28;20474;-66
2021/10/29 03:43:23;;;;;;;19.10;12.10;;;5.10;99.90;;;;;;5076047;28;20447;-66
2021/10/29 03:45:52;;;;;;;14.67;10.60;;;5.10;99.90;;;;;;5075418;28;20536;-65
2021/10/29 03:48:25;;;;;;;15.63;10.30;;;5.10;99.90;;;;;;5081632;28;20502;-66
2021/10/29 03:51:02;;;;;;;17.23;10.80;;;5.00;99.90;;;;;;5089050;28;20437;-65
2021/10/29 03:53:36;;;;;;;14.33;10.37;;;5.00;99.90;;;;;;5087509;28;20465;-65
2021/10/29 03:56:04;;;;;;;20.17;12.13;;;5.20;99.90;;;;;;5072215;28;20531;-66
2021/10/29 03:58:31;;;;;;;17.37;11.57;;;5.20;99.90;;;;;;5086226;28;20478;-65
2021/10/29 04:00:57;;;;;;;15.43;10.47;;;5.10;99.90;;;;;;5070886;28;20535;-66
2021/10/29 04:03:24;;;;;;;17.70;13.20;;;5.00;99.90;;;;;;5082992;28;20450;-66
2021/10/29 04:05:51;;;;;;;13.13;9.40;;;5.00;99.90;;;;;;5072045;28;20442;-66
2021/10/29 04:08:19;;;;;;;15.97;11.20;;;5.00;99.90;;;;;;5082565;28;20442;-66
2021/10/29 04:10:49;;;;;;;18.40;10.33;;;5.10;99.90;;;;;;5070822;28;20499;-65
2021/10/29 04:13:16;;;;;;;15.83;11.20;;;5.20;99.90;;;;;;5071517;28;20462;-65
2021/10/29 04:15:42;;;;;;;13.90;11.73;;;5.20;99.90;;;;;;5073122;28;20529;-66
2021/10/29 04:18:10;;;;;;;17.00;10.37;;;5.20;99.90;;;;;;5074764;28;20480;-66
2021/10/29 04:20:37;;;;;;;17.70;11.57;;;5.20;99.90;;;;;;5086042;28;20437;-66
2021/10/29 04:23:04;;;;;;;15.20;10.97;;;5.30;99.90;;;;;;5070511;28;20540;-66
2021/10/29 04:25:31;;;;;;;17.50;12.33;;;5.40;99.90;;;;;;5078417;28;20436;-65
2021/10/29 04:28:04;;;;;;;19.03;11.63;;;5.30;99.90;;;;;;5090133;28;20531;-66
2021/10/29 04:30:32;;;;;;;18.73;12.60;;;5.40;99.90;;;;;;5091682;28;20443;-65
2021/10/29 04:32:59;;;;;;;18.20;11.63;;;5.30;99.90;;;;;;5090837;28;20480;-66
2021/10/29 04:35:27;;;;;;;17.10;11.80;;;5.40;99.90;;;;;;5091097;28;20446;-66
2021/10/29 04:37:54;;;;;;;17.83;10.73;;;5.20;99.90;;;;;;5082028;28;20489;-66
2021/10/29 04:40:21;;;;;;;18.83;13.23;;;5.20;99.90;;;;;;5070901;28;20442;-68
2021/10/29 04:42:48;;;;;;;15.37;10.83;;;5.20;99.90;;;;;;5070311;28;20456;-65
2021/10/29 04:45:16;;;;;;;16.40;11.80;;;5.40;99.90;;;;;;5071146;28;20441;-65
2021/10/29 04:47:43;;;;;;;17.97;11.90;;;5.20;99.90;;;;;;5071253;28;20472;-65
2021/10/29 04:50:11;;;;;;;16.03;11.50;;;5.20;99.90;;;;;;5071268;28;20536;-65
2021/10/29 04:52:38;;;;;;;23.60;13.97;;;5.20;99.90;;;;;;5070953;28;20473;-65
2021/10/29 04:55:06;;;;;;;18.30;11.33;;;5.30;99.90;;;;;;5070494;28;20520;-66
2021/10/29 04:57:33;;;;;;;20.37;14.17;;;5.30;99.90;;;;;;5070640;28;20445;-66
2021/10/29 05:00:02;;;;;;;18.77;13.00;;;5.30;99.90;;;;;;5078308;28;20475;-66
2021/10/29 05:02:31;;;;;;;18.37;12.40;;;5.30;99.90;;;;;;5091387;28;20448;-67
2021/10/29 05:04:58;;;;;;;19.33;12.10;;;5.20;99.90;;;;;;5083322;28;20455;-67
2021/10/29 05:07:24;;;;;;;18.70;12.00;;;5.20;99.90;;;;;;5070517;28;20452;-67
2021/10/29 05:09:51;;;;;;;17.10;10.30;;;5.20;99.90;;;;;;5070179;28;20448;-67
2021/10/29 05:12:18;;;;;;;18.60;13.17;;;5.10;99.90;;;;;;5070877;28;20444;-67
2021/10/29 05:14:45;;;;;;;21.97;12.67;;;5.50;99.90;;;;;;5070259;28;20444;-67
2021/10/29 05:17:12;;;;;;;19.60;11.63;;;5.80;99.90;;;;;;5070920;28;20772;-67
2021/10/29 05:19:40;;;;;;;17.80;12.83;;;6.00;99.90;;;;;;5070752;28;20485;-67
2021/10/29 05:22:08;;;;;;;15.93;10.43;;;5.70;99.90;;;;;;5069892;28;20532;-67
2021/10/29 05:24:36;;;;;;;15.87;10.83;;;5.50;99.90;;;;;;5070243;28;20608;-67
2021/10/29 05:27:03;;;;;;;18.37;11.00;;;5.40;99.90;;;;;;5070202;28;20524;-67
2021/10/29 05:29:29;;;;;;;15.10;11.30;;;5.60;99.90;;;;;;5070767;28;20536;-67
2021/10/29 05:32:00;;;;;;;15.17;11.37;;;5.40;99.90;;;;;;5070197;28;20547;-67
2021/10/29 05:34:27;;;;;;;13.93;11.10;;;5.20;99.90;;;;;;5070782;28;20488;-67
2021/10/29 05:36:56;;;;;;;15.60;11.67;;;5.30;99.90;;;;;;5069865;28;20957;-67
2021/10/29 05:39:23;;;;;;;17.30;11.67;;;5.40;99.90;;;;;;5071488;28;20965;-67
2021/10/29 05:41:50;;;;;;;18.97;12.03;;;5.40;99.90;;;;;;5073863;28;20447;-67
2021/10/29 05:44:18;;;;;;;16.93;11.83;;;5.50;99.90;;;;;;5074316;28;20872;-67
2021/10/29 05:46:46;;;;;;;15.03;10.70;;;5.40;99.90;;;;;;5074273;28;20532;-68
2021/10/29 05:49:15;;;;;;;14.20;9.73;;;5.50;99.90;;;;;;5074203;28;20449;-67
2021/10/29 05:51:45;;;;;;;22.13;11.20;;;5.40;99.90;;;;;;5074194;28;20807;-68
2021/10/29 05:54:37;;;;;;;15.23;10.77;;;5.30;99.90;;;;;;5073885;28;20522;-67
2021/10/29 05:57:05;;;;;;;17.17;11.60;;;5.30;99.90;;;;;;5073626;28;20531;-67
2021/10/29 05:59:35;;;;;;;15.27;11.83;;;5.20;99.90;;;;;;5073849;28;20512;-67
2021/10/29 06:02:03;;;;;;;16.40;10.60;;;5.20;99.90;;;;;;5073344;28;20772;-68
2021/10/29 06:04:30;;;;;;;18.43;12.37;;;5.20;99.90;;;;;;5073578;28;20510;-68
2021/10/29 06:06:57;;;;;;;13.53;10.90;;;5.40;99.90;;;;;;5073295;28;20531;-67
2021/10/29 06:09:26;;;;;;;14.40;10.50;;;5.30;99.90;;;;;;5073876;28;20506;-67
2021/10/29 06:11:53;;;;;;;14.70;10.83;;;5.40;99.90;;;;;;5072972;28;20433;-67
2021/10/29 06:14:20;;;;;;;14.97;10.60;;;5.40;99.90;;;;;;5073802;28;20441;-67
2021/10/29 06:16:47;;;;;;;17.07;11.73;;;5.50;99.90;;;;;;5073882;28;20528;-67
2021/10/29 06:19:14;;;;;;;17.47;12.40;;;5.50;99.90;;;;;;5073350;28;21050;-67
2021/10/29 06:21:44;;;;;;;19.57;11.73;;;5.50;99.90;;;;;;5073383;28;20481;-66
2021/10/29 06:24:13;;;;;;;17.33;13.57;;;5.40;99.90;;;;;;5072887;28;20985;-67
2021/10/29 06:26:46;;;;;;;21.27;11.70;;;5.50;99.90;;;;;;5073285;28;20449;-67
2021/10/29 06:29:13;;;;;;;22.37;14.03;;;5.50;99.90;;;;;;5073069;28;20434;-67
2021/10/29 06:31:41;;;;;;;16.57;11.13;;;5.50;99.90;;;;;;5073492;28;20444;-67
2021/10/29 06:34:09;;;;;;;17.23;11.60;;;5.60;99.90;;;;;;5072639;28;20988;-67
2021/10/29 06:36:37;;;;;;;18.37;12.87;;;5.60;99.90;;;;;;5073376;28;20441;-67
2021/10/29 06:39:04;;;;;;;19.27;12.60;;;5.60;99.90;;;;;;5072771;28;20509;-67
2021/10/29 06:41:31;;;;;;;18.57;11.77;;;5.60;99.90;;;;;;5073191;28;20494;-67
2021/10/29 06:44:20;;;;;;;21.40;13.20;;;5.70;99.90;;;;;;5072943;28;20489;-67
2021/10/29 06:46:50;;;;;;;19.03;12.77;;;5.80;99.90;;;;;;5073296;28;20437;-67
2021/10/29 07:00:44;;;;;;;18.10;13.13;;;6.00;99.90;;;;;;5072814;28;20401;-66
2021/10/29 07:03:29;;;;;;;16.03;12.40;;;6.20;99.90;;;;;;5071990;28;20430;-66
2021/10/29 07:12:01;;;;;;;17.80;11.37;;;6.50;99.90;;;;;;5072633;28;20416;-66
2021/10/29 07:41:54;;;;;;;16.73;12.20;;;7.30;99.90;;;;;;5051597;28;20837;-68
2021/10/29 07:44:26;;;;;;;15.20;10.80;;;7.30;99.90;;;;;;5052110;28;20453;-66
2021/10/29 07:46:54;;;;;;;17.60;11.90;;;7.40;99.90;;;;;;5052189;28;20810;-67
2021/10/29 07:49:27;;;;;;;14.90;11.10;;;7.60;99.90;;;;;;5051987;28;20458;-66
2021/10/29 07:51:54;;;;;;;15.57;10.93;;;7.60;99.90;;;;;;5052031;28;20851;-66
2021/10/29 07:54:22;;;;;;;20.13;13.67;;;7.60;99.90;;;;;;5052071;28;20461;-66
2021/10/29 07:56:49;;;;;;;15.37;12.60;;;7.80;99.90;;;;;;5051853;28;20537;-67
2021/10/29 07:59:15;;;;;;;13.90;12.07;;;8.00;99.90;;;;;;5051211;28;20481;-66
2021/10/29 08:01:42;;;;;;;15.20;10.93;;;8.10;99.90;;;;;;5051844;28;20439;-66
2021/10/29 08:04:09;;;;;;;20.53;10.90;;;8.20;99.90;;;;;;5050354;28;20442;-66
2021/10/29 08:06:37;;;;;;;15.10;11.00;;;8.20;99.90;;;;;;5051687;28;20844;-66
2021/10/29 08:09:04;;;;;;;12.63;10.30;;;8.40;99.90;;;;;;5050713;28;20545;-66
2021/10/29 08:11:31;;;;;;;14.20;10.23;;;8.50;99.90;;;;;;5051650;28;20525;-67
2021/10/29 08:13:58;;;;;;;18.00;10.50;;;8.60;99.90;;;;;;5050735;28;20997;-66
2021/10/29 08:16:25;;;;;;;13.57;10.97;;;8.80;99.90;;;;;;5051139;28;20961;-67
2021/10/29 08:18:52;;;;;;;12.97;9.90;;;8.90;99.90;;;;;;5051285;28;21069;-67
2021/10/29 08:21:19;;;;;;;13.83;9.70;;;9.00;99.90;;;;;;5050814;28;20438;-66
2021/10/29 08:23:48;;;;;;;12.60;10.00;;;9.10;99.90;;;;;;5059127;28;20563;-67
2021/10/29 08:26:15;;;;;;;14.33;10.03;;;9.10;99.90;;;;;;5070748;28;20815;-66
2021/10/29 08:28:42;;;;;;;14.93;10.87;;;9.20;99.90;;;;;;5071322;28;20477;-66
2021/10/29 08:31:09;;;;;;;14.63;9.50;;;9.20;99.90;;;;;;5070424;28;20984;-66
2021/10/29 08:33:36;;;;;;;13.13;9.57;;;9.30;99.90;;;;;;5071344;28;20438;-68
2021/10/29 08:36:06;;;;;;;13.13;10.30;;;9.50;99.90;;;;;;5070370;28;20991;-66
2021/10/29 08:38:33;;;;;;;16.53;9.87;;;9.60;40.00;;;;;;5071230;28;20433;-67
2021/10/29 08:41:02;;;;;;;13.23;10.40;;;9.70;4.10;;;;;;5070651;28;20449;-66
2021/10/29 08:43:29;;;;;;;13.30;10.07;;;9.80;1.00;;;;;;5070933;28;20481;-67
2021/10/29 08:45:56;;;;;;;12.90;10.60;;;9.80;1.00;;;;;;5071166;28;20520;-67
2021/10/29 08:48:26;;;;;;;14.97;11.27;;;9.90;1.00;;;;;;5070855;28;20437;-67
2021/10/29 08:50:53;;;;;;;16.40;10.43;;;10.00;1.00;;;;;;5070853;28;20931;-67
2021/10/29 08:53:20;;;;;;;14.50;10.30;;;10.00;1.00;;;;;;5070475;28;20560;-67
2021/10/29 08:55:48;;;;;;;16.03;9.80;;;10.00;1.00;;;;;;5070726;28;20528;-67
2021/10/29 08:58:18;;;;;;;12.53;10.30;;;10.00;99.90;;;;;;5070095;28;20458;-66
2021/10/29 09:00:45;;;;;;;15.13;10.67;;;9.90;99.90;;;;;;5071255;28;20829;-67
2021/10/29 09:03:24;;;;;;;14.27;10.50;;;10.10;96.80;;;;;;5070076;28;20442;-67
2021/10/29 09:06:06;;;;;;;13.00;9.47;;;10.00;51.10;;;;;;5071126;28;20820;-67
2021/10/29 09:08:48;;;;;;;14.93;10.33;;;9.90;99.90;;;;;;5070907;28;20781;-66
2021/10/29 09:11:32;;;;;;;15.67;10.70;;;10.10;99.90;;;;;;5070309;28;20476;-66
2021/10/29 09:17:13;;;;;;;11.90;9.60;;;10.10;99.90;;;;;;5074777;28;20396;-68
2021/10/29 09:31:28;;;;;;;14.80;10.57;;;10.40;1.00;;;;;;5055382;28;20445;-67
2021/10/29 09:33:57;;;;;;;16.77;10.83;;;10.40;1.00;;;;;;5074614;28;20513;-67
2021/10/29 09:36:32;;;;;;;13.27;10.30;;;10.50;1.00;;;;;;5073520;28;20949;-67
2021/10/29 09:39:01;;;;;;;15.47;9.67;;;10.60;99.90;;;;;;5074316;28;20813;-67
2021/10/29 09:41:28;;;;;;;14.50;11.90;;;10.70;63.80;;;;;;5074093;28;20827;-68
2021/10/29 09:44:00;;;;;;;17.23;9.97;;;10.70;1.00;;;;;;5074296;28;20536;-68
2021/10/29 09:46:41;;;;;;;12.30;9.93;;;10.80;99.90;;;;;;5073975;28;20439;-68
2021/10/29 09:49:16;;;;;;;12.83;10.27;;;10.80;99.90;;;;;;5073443;28;20472;-68
2021/10/29 09:52:19;;;;;;;15.00;10.97;;;10.90;99.90;;;;;;5074020;28;20425;-68
2021/10/29 09:54:52;;;;;;;14.83;10.67;;;11.00;99.90;;;;;;5074437;28;20924;-68
2021/10/29 09:57:21;;;;;;;20.17;11.30;;;11.20;1.00;;;;;;5073259;28;20520;-68
2021/10/29 09:59:50;;;;;;;15.77;10.80;;;11.40;1.00;;;;;;5073813;28;20477;-68
2021/10/29 10:02:20;;;;;;;12.80;10.77;;;11.40;1.00;;;;;;5073370;28;20982;-68
2021/10/29 10:04:50;;;;;;;15.83;10.10;;;11.50;1.00;;;;;;5073612;28;20940;-68
2021/10/29 10:07:20;;;;;;;11.40;10.20;;;11.70;1.00;;;;;;5073288;28;20447;-68
2021/10/29 10:09:48;;;;;;;15.80;10.30;;;11.80;1.00;;;;;;5073865;28;20472;-68
2021/10/29 10:12:20;;;;;;;19.43;10.80;;;12.00;99.90;;;;;;5073016;28;20442;-68
2021/10/29 10:14:47;;;;;;;12.40;10.13;;;12.00;99.90;;;;;;5074014;28;20421;-68
2021/10/29 10:17:15;;;;;;;10.93;9.77;;;12.00;1.00;;;;;;5073182;28;20527;-68
2021/10/29 10:19:45;;;;;;;14.93;9.20;;;12.10;1.00;;;;;;5073724;28;20527;-68
2021/10/29 10:22:15;;;;;;;13.83;9.90;;;12.10;1.00;;;;;;5072733;28;20445;-68
2021/10/29 10:24:45;;;;;;;12.50;9.23;;;12.20;1.00;;;;;;5073114;28;20494;-68
2021/10/29 10:30:26;;;;;;;13.17;9.93;;;12.40;99.90;;;;;;4991220;28;20438;-68
2021/10/29 10:46:53;;;;;;;10.07;9.07;;;;;;;;;;5047142;28;20422;-68
2021/10/29 10:49:22;;;;;;;15.47;11.07;;;;;;;;;;5072988;28;20410;-68
2021/10/29 10:52:02;;;;;;;13.70;9.80;;;;;;;;;;5073108;28;20433;-68
2021/10/29 10:54:36;;;;;;;10.93;9.83;;;;;;;;;;5072753;28;20455;-68
2021/10/29 10:57:13;;;;;;;11.60;9.50;;;;;;;;;;5073230;28;20441;-69
2021/10/29 11:00:06;;;;;;;12.47;8.70;;;;;;;;;;5072985;28;20484;-68
2021/10/29 11:11:06;;;;;;;12.27;8.07;;;;;;;;;;5072902;28;20394;-69
2021/10/29 11:13:48;;;;;;;9.53;8.53;;;;;;;;;;5072371;28;20445;-68
2021/10/29 11:16:16;;;;;;;8.33;7.33;;;;;;;;;;5072175;28;20460;-68
2021/10/29 11:18:53;;;;;;;10.27;7.63;;;;;;;;;;5072555;28;20437;-68
2021/10/29 11:21:25;;;;;;;8.93;7.30;;;;;;;;;;5072108;28;20548;-68
2021/10/29 11:23:56;;;;;;;11.00;8.40;;;;;;;;;;5072520;28;20477;-68
2021/10/29 11:26:25;;;;;;;10.10;7.50;;;;;;;;;;5071679;28;20896;-68
2021/10/29 11:28:54;;;;;;;10.03;6.83;;;;;;;;;;5072412;28;20818;-68
2021/10/29 11:31:24;;;;;;;8.70;7.03;;;;;;;;;;5071827;28;20812;-68
2021/10/29 11:33:52;;;;;;;7.50;5.97;;;;;;;;;;5072181;28;20450;-68
2021/10/29 11:36:20;;;;;;;6.30;5.60;;;;;;;;;;5071790;28;20476;-68
2021/10/29 11:38:48;;;;;;;8.37;4.90;;;;;;;;;;5072094;28;20524;-68
2021/10/29 11:41:18;;;;;;;8.33;5.50;;;;;;;;;;5071420;28;20481;-68
2021/10/29 11:43:45;;;;;;;6.87;5.80;;;;;;;;;;5072275;28;20858;-69
2021/10/29 11:46:14;;;;;;;8.00;6.50;;;;;;;;;;5071271;28;20453;-68
2021/10/29 11:48:45;;;;;;;9.50;7.90;;;;;;;;;;5072014;28;20446;-69
2021/10/29 11:51:13;;;;;;;12.53;9.20;;;;;;;;;;5071429;28;20437;-68
2021/10/29 11:53:45;;;;;;;10.60;8.53;;;;;;;;;;5071877;28;20449;-68
2021/10/29 11:56:30;;;;;;;11.03;8.77;;;;;;;;;;5071277;28;20422;-68
2021/10/29 12:01:52;;;;;;;12.67;8.90;;;;;;;;;;5037747;28;20436;-68
2021/10/29 12:07:17;;;;;;;8.90;8.00;;;;;;;;;;5071387;28;20413;-69
2021/10/29 12:09:45;;;;;;;7.17;6.50;;;;;;;;;;5071787;28;20940;-69
2021/10/29 12:12:13;;;;;;;7.73;6.93;;;;;;;;;;5071112;28;20551;-68
2021/10/29 12:14:44;;;;;;;7.20;5.80;;;;;;;;;;5071326;28;21028;-68
2021/10/29 12:17:15;;;;;;;6.70;6.00;;;;;;;;;;5071077;28;20462;-68
2021/10/29 12:19:44;;;;;;;8.60;6.47;;;;;;;;;;5071544;28;20542;-68
2021/10/29 12:22:24;;;;;;;7.47;6.77;;;;;;;;;;5070938;28;20445;-68
2021/10/29 12:24:55;;;;;;;7.80;7.03;;;;;;;;;;5071043;28;20576;-68
2021/10/29 12:27:27;;;;;;;8.43;7.27;;;;;;;;;;5070920;28;20437;-68
2021/10/29 12:30:30;;;;;;;7.53;6.13;;;;;;;;;;5071475;28;20502;-69
2021/10/29 12:39:01;;;;;;;8.70;6.53;;;;;;;;;;5070576;28;20471;-68
2021/10/29 13:04:16;;;;;;;6.37;4.20;;;;;;;;;;5026169;28;20431;-67
2021/10/29 13:06:45;;;;;;;5.67;3.90;;;;;;;;;;5026090;28;20442;-67
2021/10/29 13:09:14;;;;;;;4.90;4.40;;;;;;;;;;5065522;28;20539;-68
2021/10/29 13:11:50;;;;;;;6.63;4.43;;;;;;;;;;5108849;28;20436;-67
2021/10/29 13:14:27;;;;;;;5.00;4.20;;;;;;;;;;5108214;28;20865;-67
2021/10/29 13:16:56;;;;;;;9.33;4.07;;;;;;;;;;5108873;28;20497;-67
2021/10/29 13:19:44;;;;;;;4.57;4.13;;;;;;;;;;5108455;28;20448;-67
2021/10/29 13:25:48;;;;;;;4.90;4.40;;;;;;;;;;5059810;28;20940;-67
2021/10/29 13:28:29;;;;;;;5.17;4.67;;;;;;;;;;5108387;28;20439;-67
2021/10/29 13:36:48;;;;;;;6.30;5.03;;;;;;;;;;5107751;28;20609;-67
2021/10/29 13:53:08;;;;;;;5.40;4.63;;;;;;;;;;5104215;28;20442;-67
2021/10/29 13:55:50;;;;;;;6.23;4.93;;;;;;;;;;5107520;28;21550;-67
2021/10/29 14:29:09;;;;;;;5.70;4.47;;;;;;;;;;5067757;28;20493;-67
2021/10/29 14:31:42;;;;;;;5.33;4.80;;;;;;;;;;5093210;28;20826;-68
2021/10/29 14:34:14;;;;;;;7.40;4.50;;;;;;;;;;5093656;28;20460;-67
2021/10/29 14:36:47;;;;;;;6.17;5.17;;;;;;;;;;5093158;28;20460;-67
2021/10/29 14:39:18;;;;;;;5.23;4.70;;;;;;;;;;5093745;28;20498;-67
2021/10/29 14:41:54;;;;;;;8.33;5.30;;;;;;;;;;5093634;28;20451;-67
2021/10/29 14:44:24;;;;;;;6.53;5.70;;;;;;;;;;5092721;28;20434;-67
2021/10/29 14:47:06;;;;;;;6.30;4.77;;;;;;;;;;5093625;28;20792;-67
2021/10/29 14:49:48;;;;;;;5.37;4.83;;;;;;;;;;5092932;28;20440;-67
2021/10/29 15:17:30;;;;;;;6.00;5.33;;;;;;;;;;5091791;28;20903;-69
2021/10/29 15:25:55;;;;;;;7.63;4.70;;;;;;;;;;5091389;28;20427;-68
2021/10/29 15:28:32;;;;;;;6.40;5.33;;;;;;;;;;5073642;28;20468;-66
2021/10/29 15:31:03;;;;;;;10.60;6.50;;;;;;;;;;5091851;28;20485;-66
2021/10/29 15:33:43;;;;;;;6.57;4.80;;;;;;;;;;5091571;28;20803;-66
2021/10/29 15:41:47;;;;;;;6.43;4.50;;;;;;;;;;5089060;28;20432;-67
2021/10/29 15:44:17;;;;;;;7.30;5.60;;;;;;;;;;5091186;28;20455;-66
2021/10/29 15:46:50;;;;;;;5.20;4.70;;;;;;;;;;5091588;28;20516;-68
2021/10/29 15:49:34;;;;;;;5.03;4.30;;;;;;;;;;5092524;28;20437;-67
2021/10/29 15:52:05;;;;;;;6.57;5.30;;;;;;;;;;5092004;28;20428;-67
2021/10/29 15:54:39;;;;;;;7.97;5.07;;;;;;;;;;5090764;28;20583;-67
2021/10/29 15:57:07;;;;;;;6.20;4.90;;;;;;;;;;5091448;28;20483;-67
2021/10/29 15:59:39;;;;;;;5.30;4.80;;;;;;;;;;5090676;28;20439;-68
2021/10/29 16:02:17;;;;;;;7.93;5.63;;;;;;;;;;5091640;28;20433;-68
2021/10/29 16:18:38;;;;;;;8.03;5.60;;;;;;;;;;5092674;28;20914;-68
2021/10/29 16:21:05;;;;;;;7.93;6.07;;;;;;;;;;5091770;28;20531;-68
2021/10/29 16:23:32;;;;;;;7.80;5.47;;;;;;;;;;5091378;28;20854;-67
2021/10/29 16:26:03;;;;;;;8.10;4.97;;;;;;;;;;5091687;28;21020;-67
2021/10/29 16:28:32;;;;;;;9.87;4.83;;;;;;;;;;5092074;28;20781;-67
2021/10/29 16:31:00;;;;;;;6.23;5.20;;;;;;;;;;5091351;28;20456;-67
2021/10/29 16:33:29;;;;;;;7.83;6.00;;;;;;;;;;5091041;28;20848;-67
2021/10/29 16:35:56;;;;;;;7.47;5.13;;;;;;;;;;5091515;28;20488;-68
2021/10/29 16:38:24;;;;;;;6.40;5.23;;;;;;;;;;5091506;28;20448;-67
2021/10/29 16:40:51;;;;;;;7.57;5.70;;;;;;;;;;5091522;28;20467;-68
2021/10/29 16:43:21;;;;;;;41.83;39.33;;;;;;;;;;5091478;28;20511;-68
2021/10/29 16:45:48;;;;;;;9.83;8.83;;;;;;;;;;5090948;28;20456;-68
2021/10/29 16:48:16;;;;;;;7.77;6.03;;;;;;;;;;5091488;28;20499;-68
2021/10/29 16:50:44;;;;;;;8.60;6.23;;;;;;;;;;5090533;28;20984;-67
2021/10/29 16:53:12;;;;;;;7.50;6.13;;;;;;;;;;5091162;28;20482;-67
2021/10/29 16:55:41;;;;;;;9.17;6.30;;;;;;;;;;5090428;28;20553;-68
2021/10/29 16:58:08;;;;;;;7.30;6.03;;;;;;;;;;5091397;28;20440;-69
2021/10/29 17:00:37;;;;;;;12.23;6.80;;;;;;;;;;5090531;28;20498;-68
2021/10/29 17:03:04;;;;;;;10.40;5.87;;;;;;;;;;5091496;28;20529;-68
2021/10/29 17:05:32;;;;;;;10.93;6.13;;;;;;;;;;5090372;28;20940;-70
2021/10/29 17:07:59;;;;;;;10.30;6.17;;;;;;;;;;5091352;28;20539;-68
2021/10/29 17:10:28;;;;;;;8.20;5.73;;;;;;;;;;5091239;28;20443;-68